createdAt,value
2019-01-23T00:01:23.797Z,67.13
2019-01-23T00:03:53.547Z,64.30
2019-01-23T00:06:23.247Z,63.13
2019-01-23T00:08:52.929Z,66.10
2019-01-23T00:11:22.604Z,58.97
2019-01-23T00:13:52.340Z,67.00
2019-01-23T00:16:22.007Z,63.60
2019-01-23T00:18:51.803Z,62.23
2019-01-23T00:21:21.590Z,59.40
2019-01-23T00:23:51.277Z,59.37
2019-01-23T00:26:21.288Z,59.53
2019-01-23T00:28:50.977Z,59.70
2019-01-23T00:31:20.678Z,59.67
2019-01-23T00:33:50.355Z,54.23
2019-01-23T00:36:20.179Z,59.27
2019-01-23T00:38:49.848Z,56.33
2019-01-23T00:41:19.558Z,53.70
2019-01-23T00:43:50.434Z,57.47
2019-01-23T00:46:20.137Z,58.40
2019-01-23T00:48:49.864Z,58.97
2019-01-23T00:51:19.534Z,56.47
2019-01-23T00:53:49.228Z,54.00
2019-01-23T00:56:18.898Z,49.47
2019-01-23T00:58:49.321Z,57.93
2019-01-23T01:01:19.316Z,55.27
2019-01-23T01:03:49.178Z,55.53
2019-01-23T01:06:18.875Z,54.57
2019-01-23T01:08:48.674Z,54.20
2019-01-23T01:11:18.358Z,55.20
2019-01-23T01:13:48.058Z,58.47
2019-01-23T01:16:17.724Z,55.27
2019-01-23T01:18:47.483Z,55.53
2019-01-23T01:21:17.199Z,55.40
2019-01-23T01:23:47.013Z,52.83
2019-01-23T01:26:16.714Z,56.97
2019-01-23T01:28:46.394Z,55.97
2019-01-23T01:31:16.096Z,56.13
2019-01-23T01:33:45.796Z,50.30
2019-01-23T01:36:15.519Z,53.40
2019-01-23T01:38:45.469Z,54.30
2019-01-23T01:41:15.128Z,48.13
2019-01-23T01:43:44.890Z,50.17
2019-01-23T01:46:14.734Z,53.70
2019-01-23T01:48:44.443Z,52.33
2019-01-23T01:51:14.129Z,48.70
2019-01-23T01:53:43.816Z,50.07
2019-01-23T01:56:13.506Z,49.67
2019-01-23T01:58:43.206Z,47.63
2019-01-23T02:01:13.136Z,51.73
2019-01-23T02:03:42.879Z,48.37
2019-01-23T02:06:12.584Z,46.30
2019-01-23T02:08:42.280Z,43.87
2019-01-23T02:11:12.083Z,44.43
2019-01-23T02:13:41.757Z,46.83
2019-01-23T02:16:11.533Z,41.73
2019-01-23T02:18:41.222Z,44.70
2019-01-23T02:21:10.928Z,45.40
2019-01-23T02:23:40.652Z,42.77
2019-01-23T02:26:10.314Z,46.10
2019-01-23T02:28:40.368Z,43.73
2019-01-23T02:31:11.031Z,43.50
2019-01-23T02:33:40.717Z,42.37
2019-01-23T02:36:10.507Z,42.63
2019-01-23T02:38:40.214Z,42.10
2019-01-23T02:41:09.927Z,43.23
2019-01-23T02:43:39.600Z,43.20
2019-01-23T02:46:09.327Z,42.53
2019-01-23T02:48:39.095Z,43.97
2019-01-23T02:51:08.827Z,43.73
2019-01-23T02:53:38.558Z,42.43
2019-01-23T02:56:08.251Z,36.37
2019-01-23T02:58:37.947Z,40.50
2019-01-23T03:01:07.680Z,40.40
2019-01-23T03:03:37.357Z,36.27
2019-01-23T03:06:07.120Z,39.13
2019-01-23T03:08:36.808Z,35.90
2019-01-23T03:11:06.537Z,35.10
2019-01-23T03:13:36.218Z,38.47
2019-01-23T03:16:05.933Z,36.87
2019-01-23T03:18:35.608Z,38.77
2019-01-23T03:21:05.318Z,35.93
2019-01-23T03:23:35.134Z,36.60
2019-01-23T03:26:04.838Z,35.37
2019-01-23T03:28:34.655Z,35.20
2019-01-23T03:31:04.458Z,33.13
2019-01-23T03:33:34.163Z,35.07
2019-01-23T03:36:04.247Z,36.03
2019-01-23T03:38:34.004Z,34.70
2019-01-23T03:41:04.825Z,33.27
2019-01-23T03:43:34.587Z,35.77
2019-01-23T03:46:04.297Z,37.37
2019-01-23T03:48:33.981Z,30.63
2019-01-23T03:51:03.743Z,35.70
2019-01-23T03:53:33.417Z,32.23
2019-01-23T03:56:03.148Z,34.97
2019-01-23T03:58:32.838Z,33.97
2019-01-23T04:01:02.645Z,38.17
2019-01-23T04:03:32.338Z,32.87
2019-01-23T04:06:02.035Z,36.00
2019-01-23T04:08:31.867Z,34.93
2019-01-23T04:11:01.546Z,36.03
2019-01-23T04:13:31.301Z,32.43
2019-01-23T04:16:01.006Z,36.47
2019-01-23T04:18:30.693Z,34.23
2019-01-23T04:21:00.454Z,35.87
2019-01-23T04:23:30.226Z,34.47
2019-01-23T04:25:59.897Z,34.83
2019-01-23T04:28:29.704Z,37.13
2019-01-23T04:30:59.426Z,35.87
2019-01-23T04:33:29.151Z,34.23
2019-01-23T04:35:58.843Z,33.73
2019-01-23T04:38:28.544Z,36.43
2019-01-23T04:40:58.260Z,34.50
2019-01-23T04:43:27.979Z,34.80
2019-01-23T04:45:57.732Z,35.67
2019-01-23T04:48:27.510Z,34.53
2019-01-23T04:50:58.955Z,33.93
2019-01-23T04:53:30.299Z,36.13
2019-01-23T04:56:00.007Z,34.93
2019-01-23T04:58:29.778Z,33.33
2019-01-23T05:00:59.468Z,32.33
2019-01-23T05:03:29.134Z,34.33
2019-01-23T05:05:58.813Z,33.07
2019-01-23T05:08:28.504Z,32.80
2019-01-23T05:10:58.357Z,30.37
2019-01-23T05:13:28.091Z,30.43
2019-01-23T05:15:57.825Z,34.27
2019-01-23T05:18:27.497Z,32.30
2019-01-23T05:20:57.287Z,33.27
2019-01-23T05:23:27.131Z,33.17
2019-01-23T05:25:56.817Z,33.80
2019-01-23T05:28:26.545Z,33.23
2019-01-23T05:30:56.233Z,32.03
2019-01-23T05:33:25.966Z,33.17
2019-01-23T05:35:55.772Z,32.87
2019-01-23T05:38:25.486Z,31.93
2019-01-23T05:40:55.179Z,31.47
2019-01-23T05:43:24.908Z,32.43
2019-01-23T05:45:54.610Z,33.90
2019-01-23T05:48:24.319Z,31.73
2019-01-23T05:50:54.026Z,32.33
2019-01-23T05:53:23.713Z,32.47
2019-01-23T05:55:53.474Z,25.50
2019-01-23T05:58:23.173Z,32.10
2019-01-23T06:00:52.981Z,29.53
2019-01-23T06:03:23.718Z,31.47
2019-01-23T06:05:53.545Z,31.97
2019-01-23T06:08:23.215Z,33.63
2019-01-23T06:10:53.035Z,31.70
2019-01-23T06:13:22.738Z,29.53
2019-01-23T06:15:52.432Z,30.50
2019-01-23T06:18:22.126Z,29.93
2019-01-23T06:20:51.824Z,28.37
2019-01-23T06:23:21.559Z,30.53
2019-01-23T06:25:51.251Z,31.47
2019-01-23T06:28:20.958Z,30.50
2019-01-23T06:30:50.649Z,28.23
2019-01-23T06:33:20.404Z,31.43
2019-01-23T06:35:50.241Z,30.70
2019-01-23T06:38:19.957Z,30.97
2019-01-23T06:40:49.685Z,29.33
2019-01-23T06:43:19.446Z,31.37
2019-01-23T06:45:49.147Z,26.80
2019-01-23T06:48:18.872Z,30.37
2019-01-23T06:50:48.715Z,32.37
2019-01-23T06:53:18.508Z,30.33
2019-01-23T06:55:48.208Z,30.10
2019-01-23T06:58:18.007Z,27.63
2019-01-23T07:00:47.817Z,29.67
2019-01-23T07:03:17.588Z,28.27
2019-01-23T07:05:47.292Z,30.30
2019-01-23T07:08:17.004Z,28.37
2019-01-23T07:10:46.803Z,28.87
2019-01-23T07:13:16.618Z,30.67
2019-01-23T07:15:46.336Z,32.80
2019-01-23T07:18:16.012Z,26.57
2019-01-23T07:20:45.746Z,26.60
2019-01-23T07:23:15.759Z,26.43
2019-01-23T07:25:45.435Z,26.37
2019-01-23T07:28:15.136Z,28.40
2019-01-23T07:30:44.887Z,28.90
2019-01-23T07:33:14.733Z,29.00
2019-01-23T07:35:44.435Z,27.73
2019-01-23T07:38:14.125Z,27.03
2019-01-23T07:40:43.808Z,25.70
2019-01-23T07:43:13.650Z,27.67
2019-01-23T07:45:44.464Z,25.80
2019-01-23T07:48:14.171Z,29.57
2019-01-23T07:50:43.919Z,28.93
2019-01-23T07:53:13.597Z,27.50
2019-01-23T07:55:43.300Z,29.90
2019-01-23T07:58:13.012Z,28.23
2019-01-23T08:00:42.723Z,31.30
2019-01-23T08:03:12.493Z,24.97
2019-01-23T08:05:42.245Z,29.20
2019-01-23T08:08:12.016Z,27.73
2019-01-23T08:10:41.885Z,29.00
2019-01-23T08:13:11.695Z,30.13
2019-01-23T08:15:41.514Z,29.83
2019-01-23T08:18:11.257Z,26.57
2019-01-23T08:20:41.130Z,28.73
2019-01-23T08:23:11.152Z,28.73
2019-01-23T08:25:40.943Z,28.43
2019-01-23T08:28:10.687Z,27.77
2019-01-23T08:30:40.950Z,27.17
2019-01-23T08:33:10.952Z,28.63
2019-01-23T08:35:40.702Z,26.77
2019-01-23T08:38:10.482Z,27.83
2019-01-23T08:40:40.764Z,27.80
2019-01-23T08:43:10.678Z,26.13
2019-01-23T08:45:40.438Z,27.70
2019-01-23T08:48:10.162Z,26.10
2019-01-23T08:50:41.367Z,27.97
2019-01-23T08:53:11.099Z,27.60
2019-01-23T08:55:40.854Z,23.50
2019-01-23T08:58:10.548Z,26.20
2019-01-23T09:00:45.713Z,23.23
2019-01-23T09:03:11.637Z,28.33
2019-01-23T09:05:41.385Z,28.07
2019-01-23T09:08:11.111Z,28.70
2019-01-23T09:10:40.947Z,28.57
2019-01-23T09:13:10.647Z,27.33
2019-01-23T09:15:40.443Z,26.50
2019-01-23T09:18:10.141Z,26.90
2019-01-23T09:20:39.857Z,27.90
2019-01-23T09:23:09.599Z,25.97
2019-01-23T09:25:39.302Z,26.50
2019-01-23T09:28:09.086Z,25.77
2019-01-23T09:30:42.460Z,17.30
2019-01-23T09:33:15.427Z,26.20
2019-01-23T09:35:48.490Z,28.77
2019-01-23T09:38:21.506Z,27.47
2019-01-23T09:40:54.496Z,27.77
2019-01-23T09:43:27.460Z,26.77
2019-01-23T09:46:00.545Z,27.83
2019-01-23T09:48:33.496Z,27.97
2019-01-23T09:51:06.606Z,26.80
2019-01-23T09:53:39.579Z,24.43
2019-01-23T09:56:09.620Z,26.47
2019-01-23T09:58:39.546Z,27.83
2019-01-23T10:01:09.345Z,27.03
2019-01-23T10:03:39.155Z,25.07
2019-01-23T10:06:09.991Z,24.23
2019-01-23T10:08:39.746Z,25.90
2019-01-23T10:11:09.475Z,24.13
2019-01-23T10:13:39.241Z,24.73
2019-01-23T10:16:10.089Z,28.07
2019-01-23T10:18:39.853Z,24.90
2019-01-23T10:21:09.675Z,26.27
2019-01-23T10:23:39.663Z,26.80
2019-01-23T10:26:09.315Z,24.30
2019-01-23T10:28:38.994Z,25.20
2019-01-23T10:31:08.762Z,25.43
2019-01-23T10:33:38.458Z,26.03
2019-01-23T10:36:09.236Z,26.30
2019-01-23T10:38:39.082Z,27.00
2019-01-23T10:41:08.912Z,26.43
2019-01-23T10:43:39.361Z,26.03
2019-01-23T10:46:09.329Z,24.77
2019-01-23T10:48:39.140Z,22.87
2019-01-23T10:51:09.158Z,25.83
2019-01-23T10:53:39.040Z,26.77
2019-01-23T10:56:08.745Z,24.97
2019-01-23T10:58:38.499Z,25.47
2019-01-23T11:01:13.357Z,25.33
2019-01-23T11:03:39.677Z,23.27
2019-01-23T11:06:10.962Z,23.00
2019-01-23T11:08:40.708Z,22.27
2019-01-23T11:11:10.462Z,24.47
2019-01-23T11:13:40.253Z,22.23
2019-01-23T11:16:09.910Z,22.53
2019-01-23T11:18:39.650Z,20.83
2019-01-23T11:21:09.375Z,23.27
2019-01-23T11:23:39.148Z,23.47
2019-01-23T11:26:10.024Z,23.20
2019-01-23T11:28:39.695Z,22.73
2019-01-23T11:31:09.511Z,21.77
2019-01-23T11:33:39.181Z,22.77
2019-01-23T11:36:08.950Z,21.13
2019-01-23T11:38:38.902Z,23.77
2019-01-23T11:41:08.691Z,22.00
2019-01-23T11:43:38.537Z,20.70
2019-01-23T11:46:08.191Z,23.50
2019-01-23T11:48:37.871Z,20.27
2019-01-23T11:51:07.600Z,21.53
2019-01-23T11:53:37.395Z,18.60
2019-01-23T11:56:07.140Z,19.90
2019-01-23T11:58:36.848Z,19.73
2019-01-23T12:01:06.737Z,20.37
2019-01-23T12:03:36.637Z,20.60
2019-01-23T12:06:06.349Z,19.07
2019-01-23T12:08:36.266Z,20.00
2019-01-23T12:11:05.938Z,19.60
2019-01-23T12:13:35.723Z,20.97
2019-01-23T12:16:05.533Z,21.07
2019-01-23T12:18:36.479Z,19.90
2019-01-23T12:21:06.255Z,17.87
2019-01-23T12:23:36.102Z,19.30
2019-01-23T12:26:05.860Z,20.00
2019-01-23T12:28:36.944Z,20.03
2019-01-23T12:31:06.864Z,19.90
2019-01-23T12:33:36.609Z,20.17
2019-01-23T12:36:06.412Z,19.80
2019-01-23T12:38:36.344Z,18.43
2019-01-23T12:41:06.225Z,17.60
2019-01-23T12:43:36.140Z,17.43
2019-01-23T12:46:05.950Z,18.07
2019-01-23T12:48:35.752Z,18.67
2019-01-23T12:51:05.447Z,18.37
2019-01-23T12:53:35.119Z,17.37
2019-01-23T12:56:04.922Z,16.73
2019-01-23T12:58:34.685Z,17.17
2019-01-23T13:01:04.504Z,17.87
2019-01-23T13:03:34.430Z,17.53
2019-01-23T13:06:04.354Z,17.03
2019-01-23T13:08:34.582Z,16.80
2019-01-23T13:11:04.324Z,18.50
2019-01-23T13:13:34.112Z,16.57
2019-01-23T13:16:04.005Z,16.80
2019-01-23T13:18:33.941Z,16.27
2019-01-23T13:21:04.041Z,15.17
2019-01-23T13:23:33.848Z,16.90
2019-01-23T13:26:03.742Z,17.50
2019-01-23T13:28:33.606Z,18.30
2019-01-23T13:31:03.505Z,17.33
2019-01-23T13:33:34.556Z,16.23
2019-01-23T13:36:04.581Z,14.03
2019-01-23T13:38:34.438Z,13.57
2019-01-23T13:41:04.362Z,14.50
2019-01-23T13:43:34.032Z,13.67
2019-01-23T13:46:04.007Z,15.40
2019-01-23T13:48:34.223Z,14.27
2019-01-23T13:51:04.550Z,14.40
2019-01-23T13:53:34.454Z,15.10
2019-01-23T13:56:04.267Z,15.63
2019-01-23T13:58:41.573Z,15.47
2019-01-23T14:01:06.151Z,16.87
2019-01-23T14:03:35.927Z,16.60
2019-01-23T14:06:05.685Z,14.57
2019-01-23T14:08:35.510Z,14.37
2019-01-23T14:11:05.608Z,14.87
2019-01-23T14:13:35.380Z,14.20
2019-01-23T14:16:05.197Z,15.87
2019-01-23T14:18:35.029Z,15.50
2019-01-23T14:21:04.970Z,15.47
2019-01-23T14:23:34.717Z,16.23
2019-01-23T14:26:04.530Z,12.97
2019-01-23T14:28:34.501Z,12.17
2019-01-23T14:31:04.221Z,12.30
2019-01-23T14:33:33.973Z,11.57
2019-01-23T14:36:03.734Z,11.87
2019-01-23T14:38:33.622Z,12.97
2019-01-23T14:41:03.601Z,11.83
2019-01-23T14:43:33.481Z,11.27
2019-01-23T14:46:03.603Z,12.63
2019-01-23T14:48:33.341Z,12.77
2019-01-23T14:51:03.095Z,13.40
2019-01-23T14:53:33.022Z,13.83
2019-01-23T14:56:02.979Z,13.47
2019-01-23T14:58:32.641Z,11.53
2019-01-23T15:01:03.471Z,13.53
2019-01-23T15:03:34.211Z,15.30
2019-01-23T15:06:04.162Z,16.27
2019-01-23T15:08:33.952Z,16.50
2019-01-23T15:11:03.758Z,14.20
2019-01-23T15:13:33.572Z,15.27
2019-01-23T15:16:03.370Z,16.60
2019-01-23T15:18:33.412Z,16.87
2019-01-23T15:21:03.312Z,16.80
2019-01-23T15:23:33.232Z,12.43
2019-01-23T15:26:03.005Z,17.00
2019-01-23T15:28:32.838Z,14.50
2019-01-23T15:31:02.796Z,14.67
2019-01-23T15:33:32.670Z,16.70
2019-01-23T15:36:02.415Z,15.77
2019-01-23T15:38:32.080Z,16.80
2019-01-23T15:41:01.779Z,17.47
2019-01-23T15:43:31.513Z,17.47
2019-01-23T15:46:01.399Z,18.63
2019-01-23T15:48:31.232Z,14.57
2019-01-23T15:51:01.083Z,15.77
2019-01-23T15:53:30.944Z,13.43
2019-01-23T15:56:00.873Z,16.70
2019-01-23T15:58:30.610Z,16.20
2019-01-23T16:01:00.386Z,16.10
2019-01-23T16:03:30.071Z,18.37
2019-01-23T16:05:59.929Z,19.77
2019-01-23T16:08:29.709Z,15.83
2019-01-23T16:10:59.433Z,19.07
2019-01-23T16:13:29.201Z,16.97
2019-01-23T16:15:58.968Z,17.10
2019-01-23T16:18:28.712Z,19.87
2019-01-23T16:20:58.418Z,18.23
2019-01-23T16:23:28.229Z,13.97
2019-01-23T16:25:58.098Z,20.13
2019-01-23T16:28:28.030Z,21.47
2019-01-23T16:30:57.962Z,19.13
2019-01-23T16:33:27.713Z,17.77
2019-01-23T16:35:57.449Z,20.17
2019-01-23T16:38:27.143Z,20.27
2019-01-23T16:40:56.893Z,18.97
2019-01-23T16:43:26.590Z,20.30
2019-01-23T16:45:56.359Z,17.13
2019-01-23T16:48:26.124Z,18.03
2019-01-23T16:50:55.793Z,17.80
2019-01-23T16:53:27.260Z,15.23
2019-01-23T16:55:56.948Z,14.67
2019-01-23T16:58:26.768Z,13.43
2019-01-23T17:00:56.528Z,11.80
2019-01-23T17:03:26.250Z,15.60
2019-01-23T17:05:56.128Z,17.43
2019-01-23T17:08:26.038Z,18.43
2019-01-23T17:10:55.768Z,16.97
2019-01-23T17:13:25.568Z,15.87
2019-01-23T17:15:55.470Z,16.37
2019-01-23T17:18:25.288Z,11.90
2019-01-23T17:20:55.198Z,13.93
2019-01-23T17:23:25.019Z,12.83
2019-01-23T17:25:54.964Z,17.10
2019-01-23T17:28:24.739Z,15.60
2019-01-23T17:30:54.528Z,18.43
2019-01-23T17:33:24.258Z,17.23
2019-01-23T17:35:54.050Z,16.87
2019-01-23T17:38:23.898Z,17.17
2019-01-23T17:40:53.542Z,14.70
2019-01-23T17:43:23.865Z,11.57
2019-01-23T17:45:53.731Z,17.50
2019-01-23T17:48:23.831Z,14.87
2019-01-23T17:50:53.593Z,17.63
2019-01-23T17:53:23.381Z,14.83
2019-01-23T17:55:53.195Z,16.87
2019-01-23T17:58:22.999Z,15.00
2019-01-23T18:00:54.405Z,17.23
2019-01-23T18:03:24.461Z,15.53
2019-01-23T18:05:54.301Z,15.80
2019-01-23T18:08:25.354Z,18.20
2019-01-23T18:10:55.195Z,15.47
2019-01-23T18:13:26.181Z,15.73
2019-01-23T18:15:57.519Z,13.57
2019-01-23T18:18:27.335Z,15.50
2019-01-23T18:20:57.141Z,16.53
2019-01-23T18:23:26.951Z,17.40
2019-01-23T18:25:56.811Z,17.83
2019-01-23T18:28:26.701Z,13.57
2019-01-23T18:30:59.815Z,16.90
2019-01-23T18:33:32.831Z,16.23
2019-01-23T18:36:05.893Z,17.47
2019-01-23T18:38:38.891Z,17.60
2019-01-23T18:41:11.818Z,16.20
2019-01-23T18:43:44.832Z,14.90
2019-01-23T18:46:17.812Z,17.40
2019-01-23T18:48:50.771Z,16.07
2019-01-23T18:51:29.025Z,14.30
2019-01-23T18:53:57.644Z,18.00
2019-01-23T18:56:28.845Z,17.50
2019-01-23T18:58:58.551Z,17.27
2019-01-23T19:01:28.310Z,16.73
2019-01-23T19:03:58.031Z,17.53
2019-01-23T19:06:28.777Z,16.13
2019-01-23T19:08:58.696Z,16.13
2019-01-23T19:11:28.360Z,14.60
2019-01-23T19:13:58.321Z,16.43
2019-01-23T19:16:28.175Z,16.77
2019-01-23T19:18:57.999Z,18.10
2019-01-23T19:21:27.995Z,15.00
2019-01-23T19:23:57.771Z,14.97
2019-01-23T19:26:27.708Z,16.07
2019-01-23T19:28:58.669Z,18.07
2019-01-23T19:31:28.440Z,16.70
2019-01-23T19:33:58.567Z,18.27
2019-01-23T19:36:28.369Z,17.37
2019-01-23T19:38:58.160Z,17.00
2019-01-23T19:41:27.899Z,16.63
2019-01-23T19:43:57.649Z,17.50
2019-01-23T19:46:27.521Z,17.43
2019-01-23T19:48:57.280Z,16.67
2019-01-23T19:51:27.239Z,17.50
2019-01-23T19:53:56.949Z,19.00
2019-01-23T19:56:26.815Z,17.97
2019-01-23T19:58:56.681Z,18.40
2019-01-23T20:01:27.449Z,19.00
2019-01-23T20:03:57.154Z,19.73
2019-01-23T20:06:26.937Z,17.97
2019-01-23T20:08:57.082Z,18.30
2019-01-23T20:11:26.779Z,18.60
2019-01-23T20:13:56.788Z,16.57
2019-01-23T20:16:26.619Z,16.83
2019-01-23T20:18:56.299Z,17.90
2019-01-23T20:21:26.070Z,15.67
2019-01-23T20:23:59.389Z,15.67
2019-01-23T20:26:32.430Z,15.03
2019-01-23T20:29:02.229Z,15.87
2019-01-23T20:31:32.034Z,15.63
2019-01-23T20:34:01.781Z,13.63
2019-01-23T20:36:31.461Z,13.40
2019-01-23T20:39:05.779Z,13.40
2019-01-23T20:41:35.649Z,13.40
2019-01-23T20:44:05.736Z,12.83
2019-01-23T20:46:35.573Z,13.33
2019-01-23T20:49:05.418Z,12.60
2019-01-23T20:51:35.117Z,12.43
2019-01-23T20:54:04.837Z,12.47
2019-01-23T20:56:34.594Z,11.33
2019-01-23T20:59:04.320Z,11.67
2019-01-23T21:01:34.061Z,11.37
2019-01-23T21:04:03.789Z,11.63
2019-01-23T21:06:33.511Z,11.47
2019-01-23T21:09:07.002Z,12.27
2019-01-23T21:11:39.186Z,11.67
2019-01-23T21:14:08.973Z,12.43
2019-01-23T21:16:38.746Z,12.50
2019-01-23T21:19:08.442Z,12.67
2019-01-23T21:21:38.163Z,12.60
2019-01-23T21:24:07.857Z,12.63
2019-01-23T21:26:37.622Z,12.50
2019-01-23T21:29:07.312Z,12.93
2019-01-23T21:31:37.016Z,12.93
2019-01-23T21:34:06.846Z,13.37
2019-01-23T21:36:37.552Z,12.63
2019-01-23T21:39:08.024Z,13.00
2019-01-23T21:41:37.823Z,12.87
2019-01-23T21:44:07.628Z,13.10
2019-01-23T21:46:38.421Z,13.17
2019-01-23T21:49:08.180Z,12.77
2019-01-23T21:51:37.918Z,12.77
2019-01-23T21:54:07.692Z,12.70
2019-01-23T21:56:37.550Z,13.53
2019-01-23T21:59:07.334Z,12.50
2019-01-23T22:01:37.109Z,13.57
2019-01-23T22:04:06.780Z,11.73
2019-01-23T22:06:36.558Z,12.43
2019-01-23T22:09:07.088Z,12.07
2019-01-23T22:11:43.450Z,13.53
2019-01-23T22:14:09.458Z,13.40
2019-01-23T22:16:39.148Z,12.40
2019-01-23T22:19:08.849Z,14.27
2019-01-23T22:21:57.961Z,12.33
2019-01-23T22:24:27.649Z,12.33
2019-01-23T22:26:57.322Z,12.47
2019-01-23T22:29:27.187Z,13.13
2019-01-23T22:31:57.004Z,12.77
2019-01-23T22:34:26.773Z,13.00
2019-01-23T22:36:57.111Z,14.50
2019-01-23T22:39:27.051Z,14.23
2019-01-23T22:41:56.713Z,14.00
2019-01-23T22:44:26.436Z,13.97
2019-01-23T22:46:56.101Z,13.50
2019-01-23T22:49:25.790Z,13.90
2019-01-23T22:51:55.479Z,13.73
2019-01-23T22:54:25.204Z,13.10
2019-01-23T22:56:55.020Z,13.80
2019-01-23T22:59:24.719Z,13.27
2019-01-23T23:01:54.529Z,12.83
2019-01-23T23:04:24.305Z,13.80
2019-01-23T23:06:54.314Z,14.43
2019-01-23T23:09:24.073Z,14.33
2019-01-23T23:11:53.891Z,14.73
2019-01-23T23:14:23.701Z,14.33
2019-01-23T23:16:53.507Z,14.00
2019-01-23T23:19:23.332Z,13.90
2019-01-23T23:21:53.130Z,13.87
2019-01-23T23:24:22.876Z,13.90
2019-01-23T23:26:52.650Z,13.83
2019-01-23T23:29:23.440Z,13.87
2019-01-23T23:31:53.118Z,12.93
2019-01-23T23:34:22.919Z,11.97
2019-01-23T23:36:52.733Z,13.50
2019-01-23T23:39:22.510Z,13.67
2019-01-23T23:41:52.205Z,13.07
2019-01-23T23:44:21.922Z,13.13
2019-01-23T23:46:51.639Z,12.00
2019-01-23T23:49:21.313Z,10.83
2019-01-23T23:51:51.087Z,12.03
2019-01-23T23:54:20.761Z,12.57
2019-01-23T23:56:50.497Z,11.97
2019-01-23T23:59:20.322Z,13.20
